Time;durP1;ratioP1;P1;durP2;ratioP2;P2;SDS_P1;SDS_P2;PMS_P1;PMS_P2;Temp;Humidity;BMP_temperature;BMP_pressure;BME280_temperature;BME280_humidity;BME280_pressure;Samples;Min_cycle;Max_cycle;Signal;HPM_P1;HPM_P2
2024/01/28 00:01:57;;;;;;;26.50;23.90;;;0.50;99.90;;;;;;5032831;28;20257;-78
2024/01/28 00:04:24;;;;;;;26.47;23.87;;;0.50;99.90;;;;;;5031602;28;20202;-78
2024/01/28 00:06:52;;;;;;;27.07;24.33;;;0.50;99.90;;;;;;5041195;28;20495;-78
2024/01/28 00:09:19;;;;;;;25.77;23.17;;;0.40;99.90;;;;;;5041209;28;20461;-78
2024/01/28 00:11:46;;;;;;;25.77;23.20;;;0.50;99.90;;;;;;5036926;28;21028;-78
2024/01/28 00:14:13;;;;;;;24.67;22.37;;;0.40;99.90;;;;;;5034707;28;20487;-78
2024/01/28 00:16:40;;;;;;;25.40;23.00;;;0.40;99.90;;;;;;5046915;28;20472;-78
2024/01/28 00:19:08;;;;;;;26.77;23.97;;;0.40;99.90;;;;;;5031864;28;20535;-78
2024/01/28 00:21:35;;;;;;;26.43;24.03;;;0.40;99.90;;;;;;5039827;28;20847;-78
2024/01/28 00:24:04;;;;;;;25.77;23.20;;;0.40;99.90;;;;;;5044892;28;20464;-78
2024/01/28 00:26:37;;;;;;;27.83;25.10;;;0.40;99.90;;;;;;5032687;28;21037;-78
2024/01/28 00:29:04;;;;;;;26.07;23.57;;;0.40;99.90;;;;;;5034570;28;20479;-78
2024/01/28 00:31:31;;;;;;;27.03;24.17;;;0.40;99.90;;;;;;5044649;28;20474;-78
2024/01/28 00:33:57;;;;;;;25.53;23.13;;;0.40;99.90;;;;;;5041560;28;20587;-77
2024/01/28 00:36:23;;;;;;;27.07;24.47;;;0.40;99.90;;;;;;5035751;28;20437;-78
2024/01/28 00:38:50;;;;;;;27.47;24.83;;;0.40;99.90;;;;;;5033523;28;20718;-78
2024/01/28 00:41:22;;;;;;;26.93;24.13;;;0.50;99.90;;;;;;5041716;28;20875;-78
2024/01/28 00:43:49;;;;;;;25.10;22.57;;;0.50;99.90;;;;;;5023199;28;20447;-78
2024/01/28 00:46:16;;;;;;;26.43;23.87;;;0.40;99.90;;;;;;5050805;28;20636;-78
2024/01/28 00:48:43;;;;;;;25.13;22.70;;;0.40;99.90;;;;;;5036411;28;20465;-78
2024/01/28 00:51:10;;;;;;;26.47;23.67;;;0.40;99.90;;;;;;5044133;28;20473;-78
2024/01/28 00:53:37;;;;;;;26.23;23.70;;;0.40;99.90;;;;;;5038482;28;20458;-78
2024/01/28 00:56:04;;;;;;;24.80;22.23;;;0.40;99.90;;;;;;5042347;28;20441;-78
2024/01/28 00:58:33;;;;;;;26.30;23.70;;;0.40;99.90;;;;;;5044047;28;20488;-78
2024/01/28 01:00:59;;;;;;;25.23;22.77;;;0.30;99.90;;;;;;5043379;28;20203;-78
2024/01/28 01:03:26;;;;;;;27.23;24.20;;;0.30;99.90;;;;;;5050012;28;20529;-78
2024/01/28 01:05:53;;;;;;;24.33;22.13;;;0.30;99.90;;;;;;5043684;28;20445;-78
2024/01/28 01:08:20;;;;;;;25.50;23.20;;;0.20;99.90;;;;;;5043680;28;20468;-78
2024/01/28 01:10:46;;;;;;;25.77;23.47;;;0.10;99.90;;;;;;5046397;28;20938;-78
2024/01/28 01:13:13;;;;;;;26.93;24.33;;;0.10;99.90;;;;;;5042320;28;20817;-78
2024/01/28 01:15:41;;;;;;;25.80;23.13;;;0.10;99.90;;;;;;5047386;28;20872;-78
2024/01/28 01:18:08;;;;;;;25.50;23.17;;;0.10;99.90;;;;;;5042488;28;20470;-78
2024/01/28 01:20:35;;;;;;;23.97;21.77;;;0.10;99.90;;;;;;5045832;28;20899;-78
2024/01/28 01:23:02;;;;;;;24.70;22.30;;;0.10;99.90;;;;;;5043587;28;20455;-78
2024/01/28 01:25:29;;;;;;;25.60;22.97;;;0.00;99.90;;;;;;5037470;28;20440;-78
2024/01/28 01:27:55;;;;;;;24.53;22.23;;;0.00;99.90;;;;;;5042413;28;20526;-78
2024/01/28 01:30:22;;;;;;;24.67;22.27;;;0.00;99.90;;;;;;5044787;28;20489;-78
2024/01/28 01:32:50;;;;;;;26.17;23.47;;;0.00;99.90;;;;;;5045157;28;20456;-78
2024/01/28 01:35:17;;;;;;;25.73;23.23;;;0.00;99.90;;;;;;5036823;28;20888;-78
2024/01/28 01:37:44;;;;;;;24.80;22.23;;;0.00;99.90;;;;;;5046970;28;20444;-78
2024/01/28 01:40:14;;;;;;;24.57;21.97;;;-0.10;99.90;;;;;;5047601;28;20426;-78
2024/01/28 01:42:42;;;;;;;22.83;20.73;;;-0.10;99.90;;;;;;5039440;28;20865;-78
2024/01/28 01:45:09;;;;;;;22.87;20.67;;;-0.10;99.90;;;;;;5033084;28;20536;-78
2024/01/28 01:47:36;;;;;;;23.00;20.67;;;-0.10;99.90;;;;;;5038025;28;20808;-78
2024/01/28 01:50:06;;;;;;;25.30;22.63;;;-0.20;99.90;;;;;;5039978;28;20556;-78
2024/01/28 01:52:33;;;;;;;23.83;21.57;;;-0.10;99.90;;;;;;5036554;28;20442;-78
2024/01/28 01:55:01;;;;;;;26.43;23.60;;;-0.10;99.90;;;;;;5046912;28;20444;-78
2024/01/28 01:57:28;;;;;;;25.47;23.07;;;-0.20;99.90;;;;;;5049393;28;20478;-78
2024/01/28 01:59:55;;;;;;;24.90;22.30;;;-0.20;99.90;;;;;;5043510;28;20476;-78
2024/01/28 02:02:22;;;;;;;23.50;21.40;;;-0.20;99.90;;;;;;5039390;28;20812;-78
2024/01/28 02:04:49;;;;;;;24.20;21.90;;;-0.30;99.90;;;;;;5042446;28;20437;-78
2024/01/28 02:07:17;;;;;;;23.27;21.17;;;-0.30;99.90;;;;;;5043102;28;20491;-78
2024/01/28 02:09:44;;;;;;;23.20;21.20;;;-0.30;99.90;;;;;;5048932;28;20477;-78
2024/01/28 02:12:11;;;;;;;24.03;21.63;;;-0.30;99.90;;;;;;5045120;28;20931;-78
2024/01/28 02:14:39;;;;;;;25.60;22.97;;;-0.30;99.90;;;;;;5045545;28;20447;-78
2024/01/28 02:17:06;;;;;;;25.97;23.43;;;-0.40;99.90;;;;;;5040356;28;20544;-78
2024/01/28 02:19:32;;;;;;;24.63;22.17;;;-0.40;99.90;;;;;;5041968;28;20471;-77
2024/01/28 02:21:59;;;;;;;25.93;23.47;;;-0.40;99.90;;;;;;5038562;28;20446;-78
2024/01/28 02:24:27;;;;;;;25.17;22.93;;;-0.40;99.90;;;;;;5038446;28;20446;-78
2024/01/28 02:26:54;;;;;;;25.23;22.57;;;-0.50;99.90;;;;;;5038797;28;20456;-78
2024/01/28 02:29:21;;;;;;;25.40;22.87;;;-0.50;99.90;;;;;;5041427;28;20468;-78
2024/01/28 02:31:47;;;;;;;24.47;21.97;;;-0.50;99.90;;;;;;5031676;28;20482;-78
2024/01/28 02:34:14;;;;;;;25.77;23.37;;;-0.50;99.90;;;;;;5045593;28;20500;-78
2024/01/28 02:36:41;;;;;;;26.23;23.73;;;-0.50;99.90;;;;;;5039257;28;20503;-78
2024/01/28 02:39:08;;;;;;;24.70;22.50;;;-0.60;99.90;;;;;;5037909;28;20466;-78
2024/01/28 02:41:36;;;;;;;24.57;22.40;;;-0.60;99.90;;;;;;5033131;28;20447;-78
2024/01/28 02:44:03;;;;;;;25.10;22.90;;;-0.60;99.90;;;;;;5030789;28;20463;-78
2024/01/28 02:46:30;;;;;;;25.73;23.33;;;-0.60;99.90;;;;;;5038287;28;20963;-78
2024/01/28 02:48:56;;;;;;;26.50;23.70;;;-0.60;99.90;;;;;;5030935;28;20475;-78
2024/01/28 02:51:23;;;;;;;24.97;22.40;;;-0.60;99.90;;;;;;5038889;28;20481;-78
2024/01/28 02:53:50;;;;;;;24.47;22.20;;;-0.70;99.90;;;;;;5033764;28;20477;-78
2024/01/28 02:56:17;;;;;;;24.87;22.57;;;-0.70;99.90;;;;;;5038236;28;20450;-78
2024/01/28 02:58:45;;;;;;;25.17;22.57;;;-0.80;99.90;;;;;;5043155;28;20811;-78
2024/01/28 03:01:12;;;;;;;25.37;22.87;;;-0.80;99.90;;;;;;5046671;28;20452;-78
2024/01/28 03:03:39;;;;;;;26.27;22.67;;;-0.70;99.90;;;;;;5045714;28;20454;-78
2024/01/28 03:06:06;;;;;;;25.07;22.47;;;-0.70;99.90;;;;;;5047713;28;20475;-78
2024/01/28 03:08:33;;;;;;;24.83;22.30;;;-0.70;99.90;;;;;;5042023;28;20818;-78
2024/01/28 03:11:00;;;;;;;24.80;22.50;;;-0.70;99.90;;;;;;5039100;28;20470;-78
2024/01/28 03:13:26;;;;;;;26.17;23.53;;;-0.70;99.90;;;;;;5037717;28;20868;-78
2024/01/28 03:15:55;;;;;;;25.60;23.13;;;-0.60;99.90;;;;;;5033223;28;20441;-78
2024/01/28 03:18:22;;;;;;;25.53;22.90;;;-0.70;99.90;;;;;;5033505;28;20918;-78
2024/01/28 03:20:49;;;;;;;25.43;22.83;;;-0.70;99.90;;;;;;5036629;28;20453;-78
2024/01/28 03:23:16;;;;;;;27.03;24.20;;;-0.70;99.90;;;;;;5044940;28;20429;-78
2024/01/28 03:25:43;;;;;;;24.83;22.60;;;-0.70;99.90;;;;;;5043185;28;20462;-78
2024/01/28 03:28:09;;;;;;;24.77;22.57;;;-0.70;99.90;;;;;;5045209;28;20526;-78
2024/01/28 03:30:36;;;;;;;25.07;22.67;;;-0.70;99.90;;;;;;5036445;28;20436;-78
2024/01/28 03:33:05;;;;;;;25.20;22.90;;;-0.70;99.90;;;;;;5036301;28;20522;-78
2024/01/28 03:35:31;;;;;;;25.90;23.50;;;-0.70;99.90;;;;;;5043836;28;20451;-78
2024/01/28 03:37:58;;;;;;;23.93;21.53;;;-0.70;99.90;;;;;;5037342;28;20504;-78
2024/01/28 03:40:26;;;;;;;24.17;21.83;;;-0.70;99.90;;;;;;5033864;28;21006;-78
2024/01/28 03:42:53;;;;;;;24.07;21.70;;;-0.80;99.90;;;;;;5030752;28;20488;-78
2024/01/28 03:45:20;;;;;;;24.47;22.17;;;-0.90;99.90;;;;;;5035610;28;20481;-78
2024/01/28 03:47:46;;;;;;;25.57;22.90;;;-0.90;99.90;;;;;;5038098;28;20440;-78
2024/01/28 03:50:14;;;;;;;24.33;21.80;;;-0.90;99.90;;;;;;5041444;28;20471;-78
2024/01/28 03:52:40;;;;;;;24.13;21.73;;;-0.90;99.90;;;;;;5037876;28;20467;-78
2024/01/28 03:55:08;;;;;;;24.60;22.30;;;-0.90;99.90;;;;;;5040622;28;20476;-78
2024/01/28 03:57:35;;;;;;;24.70;22.37;;;-0.90;99.90;;;;;;5039348;28;20443;-77
2024/01/28 04:00:03;;;;;;;23.13;21.07;;;-1.00;99.90;;;;;;5030511;28;20466;-77
2024/01/28 04:02:39;;;;;;;24.50;22.23;;;-1.10;99.90;;;;;;5036152;28;20432;-78
2024/01/28 04:05:06;;;;;;;23.30;21.10;;;-1.10;99.90;;;;;;5047314;28;20947;-77
2024/01/28 04:07:34;;;;;;;23.83;21.33;;;-1.20;99.90;;;;;;5039755;28;20436;-77
2024/01/28 04:10:01;;;;;;;23.60;21.10;;;-1.20;99.90;;;;;;5048009;28;21072;-76
2024/01/28 04:12:28;;;;;;;22.73;20.53;;;-1.30;99.90;;;;;;5049180;28;20580;-77
2024/01/28 04:14:55;;;;;;;24.13;21.53;;;-1.30;99.90;;;;;;5043879;28;20525;-77
2024/01/28 04:17:22;;;;;;;25.43;22.87;;;-1.30;99.90;;;;;;5045621;28;20438;-77
2024/01/28 04:19:49;;;;;;;22.97;20.87;;;-1.40;99.90;;;;;;5044708;28;20487;-77
2024/01/28 04:22:16;;;;;;;24.20;21.90;;;-1.40;99.90;;;;;;5032891;28;20459;-77
2024/01/28 04:24:44;;;;;;;24.63;22.03;;;-1.40;99.90;;;;;;5025622;28;20962;-77
2024/01/28 04:27:11;;;;;;;24.33;21.83;;;-1.40;99.90;;;;;;5040894;28;20450;-77
2024/01/28 04:29:37;;;;;;;24.03;21.63;;;-1.40;99.90;;;;;;5042839;28;20994;-77
2024/01/28 04:32:05;;;;;;;23.90;21.23;;;-1.40;99.90;;;;;;5038272;28;20483;-77
2024/01/28 04:34:31;;;;;;;23.30;21.00;;;-1.40;99.90;;;;;;5043784;28;20462;-77
2024/01/28 04:36:58;;;;;;;23.90;21.50;;;-1.40;99.90;;;;;;5043292;28;20505;-77
2024/01/28 04:39:25;;;;;;;23.77;21.37;;;-1.40;99.90;;;;;;5039077;28;20530;-78
2024/01/28 04:41:53;;;;;;;23.87;21.47;;;-1.50;99.90;;;;;;5027372;28;20431;-78
2024/01/28 04:44:20;;;;;;;23.50;20.87;;;-1.40;99.90;;;;;;5034347;28;20441;-77
2024/01/28 04:46:48;;;;;;;23.67;21.30;;;-1.40;99.90;;;;;;5032035;28;20439;-78
2024/01/28 04:49:15;;;;;;;21.97;19.83;;;-1.40;99.90;;;;;;5032914;28;20565;-78
2024/01/28 04:51:42;;;;;;;22.27;19.90;;;-1.30;99.90;;;;;;5032550;28;20488;-78
2024/01/28 04:54:09;;;;;;;22.67;20.40;;;-1.30;99.90;;;;;;5028139;28;20449;-78
2024/01/28 04:56:36;;;;;;;21.30;19.27;;;-1.40;99.90;;;;;;5032910;28;20513;-78
2024/01/28 04:59:04;;;;;;;21.77;19.50;;;-1.30;99.90;;;;;;5034115;28;21074;-77
2024/01/28 05:01:32;;;;;;;20.70;18.70;;;-1.40;99.90;;;;;;5033907;28;20916;-78
2024/01/28 05:04:00;;;;;;;20.63;18.60;;;-1.40;99.90;;;;;;5029820;28;20527;-80
2024/01/28 05:06:34;;;;;;;24.13;19.63;;;-1.50;99.90;;;;;;5034528;28;20445;-80
2024/01/28 05:09:01;;;;;;;22.00;19.93;;;-1.50;99.90;;;;;;5042696;28;20465;-80
2024/01/28 05:11:28;;;;;;;19.83;17.87;;;-1.50;99.90;;;;;;5038353;28;20476;-80
2024/01/28 05:13:55;;;;;;;21.47;19.37;;;-1.50;99.90;;;;;;5026967;28;20496;-79
2024/01/28 05:16:23;;;;;;;22.17;19.97;;;-1.40;99.90;;;;;;5032755;28;20457;-78
2024/01/28 05:18:50;;;;;;;21.27;19.17;;;-1.30;99.90;;;;;;5038327;28;20510;-78
2024/01/28 05:21:17;;;;;;;21.87;18.77;;;-1.30;99.90;;;;;;5038048;28;20794;-78
2024/01/28 05:23:43;;;;;;;20.10;18.10;;;-1.30;99.90;;;;;;5047835;28;20437;-77
2024/01/28 05:26:10;;;;;;;21.23;19.00;;;-1.30;99.90;;;;;;5034150;28;20444;-81
2024/01/28 05:28:37;;;;;;;20.03;17.97;;;-1.30;99.90;;;;;;5043031;28;20967;-79
2024/01/28 05:31:04;;;;;;;20.03;17.93;;;-1.30;99.90;;;;;;5039960;28;20845;-78
2024/01/28 05:33:34;;;;;;;20.73;18.63;;;-1.30;99.90;;;;;;5040255;28;20440;-78
2024/01/28 05:36:01;;;;;;;19.73;17.83;;;-1.30;99.90;;;;;;5032178;28;20449;-78
2024/01/28 05:38:29;;;;;;;20.33;18.27;;;-1.30;99.90;;;;;;5040035;28;20496;-80
2024/01/28 05:40:55;;;;;;;20.70;18.63;;;-1.30;99.90;;;;;;5033988;28;20476;-79
2024/01/28 05:43:22;;;;;;;21.23;19.17;;;-1.30;99.90;;;;;;5040712;28;20460;-80
2024/01/28 05:45:49;;;;;;;20.00;18.10;;;-1.30;99.90;;;;;;5036759;28;20807;-79
2024/01/28 05:48:16;;;;;;;21.27;19.23;;;-1.30;99.90;;;;;;5039381;28;20472;-79
2024/01/28 05:50:44;;;;;;;20.50;18.40;;;-1.30;99.90;;;;;;5029365;28;20441;-79
2024/01/28 05:53:11;;;;;;;20.87;18.93;;;-1.30;99.90;;;;;;5040498;28;20927;-81
2024/01/28 05:55:37;;;;;;;20.20;18.10;;;-1.30;99.90;;;;;;5039877;28;20449;-80
2024/01/28 05:58:05;;;;;;;22.27;18.47;;;-1.30;99.90;;;;;;5034847;28;21017;-78
2024/01/28 06:00:31;;;;;;;19.50;17.67;;;-1.30;99.90;;;;;;5034814;28;20431;-78
2024/01/28 06:02:58;;;;;;;19.60;17.67;;;-1.30;99.90;;;;;;5038220;28;20452;-78
2024/01/28 06:05:25;;;;;;;20.43;18.00;;;-1.30;99.90;;;;;;5045419;28;20470;-78
2024/01/28 06:07:53;;;;;;;19.43;17.43;;;-1.30;99.90;;;;;;5039716;28;20439;-78
2024/01/28 06:10:20;;;;;;;20.37;18.47;;;-1.40;99.90;;;;;;5038511;28;20479;-78
2024/01/28 06:12:47;;;;;;;19.57;17.77;;;-1.50;99.90;;;;;;5041381;28;20473;-78
2024/01/28 06:15:14;;;;;;;20.23;18.13;;;-1.60;99.90;;;;;;5040031;28;20595;-75
2024/01/28 06:17:40;;;;;;;20.53;18.43;;;-1.60;99.90;;;;;;5028051;28;20452;-78
2024/01/28 06:20:08;;;;;;;19.57;17.60;;;-1.70;99.90;;;;;;5030163;28;20490;-78
2024/01/28 06:22:36;;;;;;;20.10;18.17;;;-1.70;99.90;;;;;;5031339;28;20539;-78
2024/01/28 06:25:06;;;;;;;20.33;18.40;;;-1.70;99.90;;;;;;5039166;28;20433;-77
2024/01/28 06:27:33;;;;;;;21.97;19.80;;;-1.60;99.90;;;;;;5037430;28;20445;-78
2024/01/28 06:30:00;;;;;;;22.07;19.80;;;-1.60;99.90;;;;;;5032439;28;20538;-78
2024/01/28 06:32:27;;;;;;;22.23;20.13;;;-1.60;99.90;;;;;;5039752;28;20471;-81
2024/01/28 06:34:54;;;;;;;21.50;19.57;;;-1.50;99.90;;;;;;5049457;28;20493;-79
2024/01/28 06:37:20;;;;;;;21.87;19.73;;;-1.60;99.90;;;;;;5039379;28;20443;-79
2024/01/28 06:39:51;;;;;;;22.30;20.13;;;-1.50;99.90;;;;;;5040565;28;20521;-78
2024/01/28 06:42:19;;;;;;;21.03;19.23;;;-1.50;99.90;;;;;;5034015;28;20467;-79
2024/01/28 06:44:46;;;;;;;21.70;19.60;;;-1.50;99.90;;;;;;5039881;28;20476;-79
2024/01/28 06:47:13;;;;;;;22.30;20.30;;;-1.60;99.90;;;;;;5038192;28;20444;-77
2024/01/28 06:49:41;;;;;;;20.63;18.77;;;-1.60;99.90;;;;;;5035031;28;20464;-78
2024/01/28 06:52:08;;;;;;;22.00;19.67;;;-1.60;99.90;;;;;;5031067;28;20478;-80
2024/01/28 06:54:34;;;;;;;20.50;18.67;;;-1.60;99.90;;;;;;5043277;28;20463;-80
2024/01/28 06:57:01;;;;;;;23.27;21.17;;;-1.60;99.90;;;;;;5042432;28;20509;-79
2024/01/28 06:59:32;;;;;;;22.73;20.40;;;-1.70;99.90;;;;;;5036385;28;20468;-78
2024/01/28 07:01:59;;;;;;;21.00;19.20;;;-1.60;99.90;;;;;;5036577;28;20454;-77
2024/01/28 07:04:26;;;;;;;21.57;19.53;;;-1.60;99.90;;;;;;5028269;28;20497;-78
2024/01/28 07:06:52;;;;;;;21.80;19.90;;;-1.60;99.90;;;;;;5027409;28;20451;-78
2024/01/28 07:09:21;;;;;;;20.47;18.53;;;-1.60;99.90;;;;;;5022747;28;20966;-78
2024/01/28 07:11:48;;;;;;;21.50;19.47;;;-1.60;99.90;;;;;;5029399;28;20445;-78
2024/01/28 07:14:17;;;;;;;21.10;18.97;;;-1.60;99.90;;;;;;5031351;28;20827;-78
2024/01/28 07:16:45;;;;;;;21.93;19.87;;;-1.60;99.90;;;;;;5031325;28;20966;-78
2024/01/28 07:19:11;;;;;;;20.33;18.43;;;-1.50;99.90;;;;;;5044059;28;20517;-78
2024/01/28 07:21:38;;;;;;;20.90;18.83;;;-1.40;99.90;;;;;;5045016;28;20863;-78
2024/01/28 07:24:07;;;;;;;20.57;18.60;;;-1.40;99.90;;;;;;5027827;28;20464;-78
2024/01/28 07:26:34;;;;;;;21.27;19.20;;;-1.40;99.90;;;;;;5028246;28;20529;-78
2024/01/28 07:29:00;;;;;;;19.27;17.67;;;-1.40;99.90;;;;;;5028325;28;20452;-78
2024/01/28 07:31:27;;;;;;;20.80;18.90;;;-1.30;99.90;;;;;;5042773;28;20441;-78
2024/01/28 07:33:55;;;;;;;21.17;19.27;;;-1.20;99.90;;;;;;5029009;28;20487;-78
2024/01/28 07:36:22;;;;;;;22.13;19.90;;;-1.20;99.90;;;;;;5030518;28;20484;-77
2024/01/28 07:38:49;;;;;;;23.63;21.20;;;-1.10;99.90;;;;;;5029989;28;20474;-77
2024/01/28 07:41:16;;;;;;;22.77;20.53;;;-1.00;99.90;;;;;;5047142;28;20499;-77
2024/01/28 07:43:43;;;;;;;21.60;19.70;;;-0.90;99.90;;;;;;5030931;28;20454;-78
2024/01/28 07:46:10;;;;;;;23.07;20.87;;;-0.90;99.90;;;;;;5033827;28;20955;-78
2024/01/28 07:48:37;;;;;;;21.20;19.27;;;-0.90;99.90;;;;;;5038324;28;20555;-78
2024/01/28 07:51:06;;;;;;;23.10;20.90;;;-0.80;99.90;;;;;;5031097;28;20441;-81
2024/01/28 07:53:33;;;;;;;20.97;19.03;;;-0.70;99.90;;;;;;5039052;28;20488;-79
2024/01/28 07:56:02;;;;;;;22.03;19.73;;;-0.70;99.90;;;;;;5046721;28;20489;-78
2024/01/28 07:58:29;;;;;;;21.10;19.20;;;-0.50;99.90;;;;;;5044558;28;20865;-78
2024/01/28 08:00:56;;;;;;;20.73;18.70;;;-0.40;99.90;;;;;;5041657;28;20449;-78
2024/01/28 08:03:23;;;;;;;20.83;18.87;;;-0.30;99.90;;;;;;5043099;28;20481;-78
2024/01/28 08:05:50;;;;;;;23.13;21.07;;;-0.20;99.90;;;;;;5039685;28;20446;-78
2024/01/28 08:08:18;;;;;;;22.90;20.40;;;-0.10;99.90;;;;;;5040525;28;20466;-78
2024/01/28 08:10:44;;;;;;;22.47;20.47;;;0.10;99.90;;;;;;5042059;28;20502;-77
2024/01/28 08:13:11;;;;;;;22.07;20.07;;;0.20;99.90;;;;;;5032614;28;20474;-78
2024/01/28 08:15:38;;;;;;;23.53;20.87;;;0.40;99.90;;;;;;5034634;28;20929;-78
2024/01/28 08:18:05;;;;;;;23.17;21.13;;;0.70;99.90;;;;;;5036618;28;20893;-78
2024/01/28 08:20:32;;;;;;;22.30;20.43;;;0.90;99.90;;;;;;5049394;28;20204;-78
2024/01/28 08:22:59;;;;;;;22.77;20.77;;;1.20;99.90;;;;;;5046361;28;20204;-79
2024/01/28 08:25:27;;;;;;;23.47;21.40;;;1.50;99.90;;;;;;5052467;28;20199;-81
2024/01/28 08:27:54;;;;;;;21.90;20.07;;;1.80;99.90;;;;;;5035917;28;20203;-79
2024/01/28 08:30:22;;;;;;;20.60;18.80;;;2.10;99.90;;;;;;5040149;28;20200;-79
2024/01/28 08:32:49;;;;;;;22.37;20.40;;;2.40;99.90;;;;;;5035518;28;20208;-82
2024/01/28 08:35:17;;;;;;;21.47;19.77;;;2.70;99.90;;;;;;5022595;28;20223;-79
2024/01/28 08:37:43;;;;;;;21.73;19.90;;;3.20;99.90;;;;;;5025252;28;20196;-78
2024/01/28 08:40:11;;;;;;;20.80;19.00;;;3.60;99.90;;;;;;5023173;28;20607;-80
2024/01/28 08:42:39;;;;;;;21.23;19.53;;;4.00;99.90;;;;;;5034365;28;20199;-80
2024/01/28 08:45:06;;;;;;;20.57;18.87;;;4.30;99.90;;;;;;5029671;28;20229;-78
2024/01/28 08:47:33;;;;;;;20.87;18.97;;;4.50;99.90;;;;;;5030898;28;20196;-79
2024/01/28 08:50:00;;;;;;;21.23;19.40;;;4.80;99.90;;;;;;5028574;28;20275;-78
2024/01/28 08:52:27;;;;;;;20.23;18.43;;;4.70;99.90;;;;;;5030537;28;20258;-80
2024/01/28 08:54:53;;;;;;;20.63;19.13;;;4.70;99.90;;;;;;5042031;28;20296;-78
2024/01/28 08:57:23;;;;;;;20.90;19.13;;;4.70;99.90;;;;;;5033944;28;20264;-84
2024/01/28 08:59:52;;;;;;;19.60;18.00;;;5.10;99.90;;;;;;5029547;28;20231;-78
2024/01/28 09:02:18;;;;;;;20.07;18.47;;;5.20;99.90;;;;;;5033703;28;20258;-79
2024/01/28 09:04:45;;;;;;;19.50;17.73;;;5.40;99.90;;;;;;5046025;28;20274;-78
2024/01/28 09:07:12;;;;;;;18.50;17.00;;;5.50;99.90;;;;;;5044325;28;20210;-78
2024/01/28 09:09:39;;;;;;;18.47;17.07;;;5.60;99.90;;;;;;5050447;28;20271;-78
2024/01/28 09:12:06;;;;;;;18.40;16.80;;;5.70;99.90;;;;;;5034026;28;20204;-78
2024/01/28 09:14:33;;;;;;;18.40;17.03;;;5.90;99.90;;;;;;5038403;28;20237;-78
2024/01/28 09:17:02;;;;;;;18.57;17.07;;;6.00;99.90;;;;;;5043921;28;20203;-78
2024/01/28 09:19:28;;;;;;;17.80;16.40;;;5.80;99.90;;;;;;5031727;28;20337;-79
2024/01/28 09:21:55;;;;;;;17.80;16.40;;;5.70;99.90;;;;;;5047624;28;20204;-78
2024/01/28 09:24:22;;;;;;;17.30;15.90;;;5.50;99.90;;;;;;5042134;28;20192;-78
2024/01/28 09:26:49;;;;;;;17.40;16.10;;;5.40;99.90;;;;;;5038500;28;20219;-78
2024/01/28 09:29:16;;;;;;;17.43;16.10;;;5.30;99.90;;;;;;5041135;28;20298;-79
2024/01/28 09:31:45;;;;;;;16.00;14.70;;;5.30;99.90;;;;;;5037438;28;20199;-79
2024/01/28 09:34:13;;;;;;;16.50;15.20;;;5.40;99.90;;;;;;5035132;28;20219;-79
2024/01/28 09:36:40;;;;;;;16.47;15.27;;;5.30;99.90;;;;;;5035422;28;20214;-79
2024/01/28 09:39:09;;;;;;;17.70;16.23;;;5.10;99.90;;;;;;5047872;28;20250;-79
2024/01/28 09:41:43;;;;;;;17.43;16.03;;;5.00;99.90;;;;;;5046408;28;20218;-78
2024/01/28 09:44:10;;;;;;;17.37;16.07;;;4.80;99.90;;;;;;5031793;28;20202;-79
2024/01/28 09:46:37;;;;;;;17.17;15.77;;;4.60;99.90;;;;;;5041994;28;20577;-79
2024/01/28 09:49:04;;;;;;;17.60;16.30;;;4.60;99.90;;;;;;5038570;28;20774;-79
2024/01/28 09:51:32;;;;;;;16.50;15.30;;;4.50;99.90;;;;;;5032036;28;20245;-78
2024/01/28 09:53:59;;;;;;;16.63;15.43;;;4.40;99.90;;;;;;5040978;28;20226;-78
2024/01/28 09:56:26;;;;;;;16.27;15.10;;;4.40;99.90;;;;;;5038195;28;20230;-78
2024/01/28 09:58:53;;;;;;;16.27;15.03;;;4.40;99.90;;;;;;5047913;28;20640;-78
2024/01/28 10:01:21;;;;;;;17.30;15.80;;;4.50;99.90;;;;;;5044050;28;20284;-78
2024/01/28 10:03:49;;;;;;;15.70;14.40;;;4.50;99.90;;;;;;5042650;28;20251;-78
2024/01/28 10:06:16;;;;;;;16.47;15.00;;;4.50;99.90;;;;;;5038909;28;20186;-78
2024/01/28 10:08:44;;;;;;;17.10;15.77;;;4.60;99.90;;;;;;5042689;28;20270;-78
2024/01/28 10:11:12;;;;;;;16.67;15.43;;;4.50;99.90;;;;;;5034378;28;20298;-78
2024/01/28 10:13:38;;;;;;;16.73;15.53;;;4.50;99.90;;;;;;5043427;28;20225;-78
2024/01/28 10:16:06;;;;;;;16.67;15.37;;;4.60;99.90;;;;;;5047059;28;20211;-79
2024/01/28 10:18:33;;;;;;;17.53;16.03;;;4.50;99.90;;;;;;5039593;28;20251;-78
2024/01/28 10:21:00;;;;;;;17.37;15.97;;;4.50;99.90;;;;;;5042149;28;20204;-79
2024/01/28 10:23:26;;;;;;;15.97;14.70;;;4.50;99.90;;;;;;5046542;28;20214;-78
2024/01/28 10:25:58;;;;;;;16.43;15.23;;;4.60;99.90;;;;;;5035803;28;20224;-78
2024/01/28 10:28:27;;;;;;;15.87;14.77;;;4.70;99.90;;;;;;5048534;28;20290;-78
2024/01/28 10:30:54;;;;;;;16.23;14.97;;;4.70;99.90;;;;;;5037693;28;20202;-78
2024/01/28 10:33:21;;;;;;;16.33;15.13;;;4.90;99.90;;;;;;5037492;28;20212;-78
2024/01/28 10:35:52;;;;;;;16.13;14.77;;;5.00;99.90;;;;;;5040066;28;20735;-80
2024/01/28 10:38:25;;;;;;;16.37;15.03;;;5.10;99.90;;;;;;5027760;28;20215;-77
2024/01/28 10:40:54;;;;;;;15.57;14.40;;;5.20;99.90;;;;;;5033631;28;20206;-77
2024/01/28 10:43:27;;;;;;;16.07;14.87;;;5.20;99.90;;;;;;5038918;28;20189;-80
2024/01/28 10:45:56;;;;;;;15.40;14.30;;;5.30;99.90;;;;;;5033375;28;20616;-83
2024/01/28 10:48:24;;;;;;;15.73;14.53;;;5.30;99.90;;;;;;5029191;28;20244;-77
2024/01/28 10:50:52;;;;;;;15.43;14.23;;;5.30;99.90;;;;;;5033429;28;20288;-79
2024/01/28 10:53:22;;;;;;;15.20;14.03;;;5.30;99.90;;;;;;5042792;28;20218;-79
2024/01/28 10:55:49;;;;;;;16.07;14.80;;;5.40;99.90;;;;;;5041016;28;20920;-79
2024/01/28 10:58:17;;;;;;;15.13;14.03;;;5.40;99.90;;;;;;5035449;28;20233;-79
2024/01/28 11:00:45;;;;;;;14.37;13.37;;;5.40;99.90;;;;;;5044454;28;20199;-79
2024/01/28 11:03:12;;;;;;;15.10;14.00;;;5.40;99.90;;;;;;5041968;28;20194;-80
2024/01/28 11:05:46;;;;;;;15.07;13.97;;;5.40;99.90;;;;;;5029833;28;20559;-80
2024/01/28 11:08:13;;;;;;;15.20;14.10;;;5.50;99.90;;;;;;5019279;28;20772;-78
2024/01/28 11:10:41;;;;;;;14.27;13.27;;;5.40;99.90;;;;;;5023252;28;20206;-78
2024/01/28 11:13:10;;;;;;;15.33;14.13;;;5.50;99.90;;;;;;5022017;28;20203;-77
2024/01/28 11:15:37;;;;;;;14.97;13.77;;;5.50;99.90;;;;;;5029804;28;20675;-78
2024/01/28 11:18:07;;;;;;;15.40;14.23;;;5.60;99.90;;;;;;5028804;28;20723;-77
2024/01/28 11:20:34;;;;;;;14.60;13.50;;;5.60;99.90;;;;;;5027451;28;20194;-81
2024/01/28 11:23:01;;;;;;;14.80;13.70;;;5.70;99.90;;;;;;5032040;28;20681;-77
2024/01/28 11:25:29;;;;;;;15.07;14.00;;;5.70;99.90;;;;;;5039017;28;20195;-81
2024/01/28 11:28:00;;;;;;;14.50;13.50;;;5.70;99.90;;;;;;5030147;28;20219;-78
2024/01/28 11:30:27;;;;;;;14.27;13.27;;;5.70;99.90;;;;;;5028905;28;20195;-78
2024/01/28 11:32:57;;;;;;;14.43;13.37;;;5.80;99.90;;;;;;5041843;28;20696;-78
2024/01/28 11:35:26;;;;;;;13.27;12.47;;;5.80;99.90;;;;;;5038291;28;20678;-77
2024/01/28 11:37:55;;;;;;;13.57;12.57;;;5.80;99.90;;;;;;5043768;28;20206;-78
2024/01/28 11:40:24;;;;;;;13.40;12.50;;;5.80;99.90;;;;;;5037534;28;20248;-77
2024/01/28 11:42:53;;;;;;;13.83;12.90;;;5.90;99.90;;;;;;5042795;28;20592;-79
2024/01/28 11:45:20;;;;;;;13.50;12.60;;;5.90;99.90;;;;;;5035323;28;20210;-78
2024/01/28 11:47:47;;;;;;;13.67;12.67;;;5.90;99.90;;;;;;5037632;28;20202;-77
2024/01/28 11:50:14;;;;;;;13.20;12.30;;;6.00;99.90;;;;;;5037297;28;20238;-79
2024/01/28 11:52:42;;;;;;;13.00;12.10;;;6.00;99.90;;;;;;5040635;28;20582;-78
2024/01/28 11:55:11;;;;;;;13.27;12.47;;;6.10;99.90;;;;;;5038073;28;20212;-79
2024/01/28 11:57:39;;;;;;;13.30;12.50;;;6.10;99.90;;;;;;5035665;28;20203;-78
2024/01/28 12:00:08;;;;;;;13.50;12.60;;;6.20;99.90;;;;;;5036630;28;20246;-80
2024/01/28 12:02:36;;;;;;;13.20;12.30;;;6.20;99.90;;;;;;5036245;28;20219;-78
2024/01/28 12:05:03;;;;;;;13.73;12.83;;;6.30;99.90;;;;;;5044494;28;20260;-79
2024/01/28 12:07:31;;;;;;;12.90;12.00;;;6.40;99.90;;;;;;5039430;28;20205;-78
2024/01/28 12:10:00;;;;;;;12.97;12.07;;;6.50;99.90;;;;;;5037640;28;20219;-79
2024/01/28 12:12:28;;;;;;;13.10;12.30;;;6.50;99.90;;;;;;5039301;28;20226;-79
2024/01/28 12:14:57;;;;;;;13.03;12.23;;;6.50;99.90;;;;;;5017955;28;20283;-79
2024/01/28 12:17:24;;;;;;;13.07;12.07;;;6.60;99.90;;;;;;5026174;28;20234;-78
2024/01/28 12:19:51;;;;;;;13.37;12.47;;;6.60;99.90;;;;;;5026094;28;20231;-78
2024/01/28 12:22:18;;;;;;;12.83;12.03;;;6.70;99.90;;;;;;5027020;28;20207;-78
2024/01/28 12:24:48;;;;;;;12.17;11.40;;;6.70;99.90;;;;;;5039046;28;20199;-78
2024/01/28 12:27:17;;;;;;;12.33;11.53;;;6.80;99.90;;;;;;5043960;28;20211;-78
2024/01/28 12:29:45;;;;;;;12.30;11.50;;;6.90;99.90;;;;;;5039991;28;20227;-78
2024/01/28 12:32:12;;;;;;;12.50;11.60;;;6.90;99.90;;;;;;5034095;28;20283;-78